createdAt,value
2022-11-04T00:01:23.018Z,1.63
2022-11-04T00:05:26.379Z,1.23
2022-11-04T00:09:31.531Z,2.72
2022-11-04T00:13:35.309Z,1.33
2022-11-04T00:17:38.909Z,2.10
2022-11-04T00:21:59.931Z,1.10
2022-11-04T00:26:20.454Z,1.55
2022-11-04T00:30:25.261Z,1.95
2022-11-04T00:34:28.609Z,4.47
2022-11-04T00:38:32.121Z,1.52
2022-11-04T00:42:35.919Z,3.72
2022-11-04T00:46:40.640Z,3.10
2022-11-04T00:50:44.048Z,2.58
2022-11-04T00:54:47.559Z,5.50
2022-11-04T00:58:51.125Z,1.92
2022-11-04T01:02:57.077Z,2.92
2022-11-04T01:07:01.543Z,5.25
2022-11-04T01:11:05.660Z,3.13
2022-11-04T01:15:10.056Z,2.20
2022-11-04T01:19:14.845Z,3.13
2022-11-04T01:23:18.295Z,3.65
2022-11-04T01:27:21.776Z,1.63
2022-11-04T01:31:27.760Z,3.22
2022-11-04T01:35:32.858Z,4.68
2022-11-04T01:39:36.239Z,3.13
2022-11-04T01:43:46.222Z,2.85
2022-11-04T01:47:56.219Z,1.00
2022-11-04T01:52:04.766Z,2.58
2022-11-04T01:56:12.221Z,3.47
2022-11-04T02:00:17.107Z,1.50
2022-11-04T02:04:27.672Z,1.75
2022-11-04T02:08:32.802Z,1.35
2022-11-04T02:12:51.295Z,2.95
2022-11-04T02:17:02.222Z,3.28
2022-11-04T02:21:41.227Z,7.10
2022-11-04T02:26:18.297Z,1.60
2022-11-04T02:30:23.561Z,4.15
2022-11-04T02:34:35.266Z,5.40
2022-11-04T02:38:45.995Z,1.98
2022-11-04T02:42:56.728Z,3.17
2022-11-04T02:47:06.190Z,3.13
2022-11-04T02:51:17.376Z,7.50
2022-11-04T02:55:24.791Z,5.95
2022-11-04T02:59:35.357Z,4.93
2022-11-04T03:03:43.435Z,5.13
2022-11-04T03:07:49.251Z,11.00
2022-11-04T03:12:03.015Z,1.27
2022-11-04T03:16:12.375Z,6.57
2022-11-04T03:20:22.193Z,2.58
2022-11-04T03:24:26.169Z,1.83
2022-11-04T03:28:38.679Z,2.50
2022-11-04T03:32:59.106Z,3.83
2022-11-04T03:37:04.103Z,3.13
2022-11-04T03:41:13.946Z,5.05
2022-11-04T03:45:17.667Z,4.00
2022-11-04T03:49:22.584Z,3.83
2022-11-04T03:53:29.637Z,2.20
2022-11-04T03:57:44.339Z,4.65
2022-11-04T04:01:54.052Z,1.75
2022-11-04T04:06:05.404Z,5.18
2022-11-04T04:10:35.007Z,8.02
2022-11-04T04:14:44.286Z,4.35
2022-11-04T04:18:55.797Z,6.75
2022-11-04T04:23:28.655Z,2.45
2022-11-04T04:27:34.159Z,4.28
2022-11-04T04:31:52.716Z,3.25
2022-11-04T04:35:58.307Z,4.15
2022-11-04T04:40:25.109Z,6.43
2022-11-04T04:44:47.905Z,11.75
2022-11-04T04:48:51.430Z,5.43
2022-11-04T04:52:57.735Z,2.45
2022-11-04T04:57:01.109Z,5.47
2022-11-04T05:01:06.333Z,3.88
2022-11-04T05:05:10.504Z,3.70
2022-11-04T05:09:14.086Z,2.28
2022-11-04T05:13:30.337Z,2.40
2022-11-04T05:17:35.119Z,12.80
2022-11-04T05:21:38.600Z,10.15
2022-11-04T05:25:42.933Z,3.85
2022-11-04T05:29:46.285Z,8.80
2022-11-04T05:33:51.169Z,6.05
2022-11-04T05:37:56.576Z,2.53
2022-11-04T05:41:59.933Z,2.17
2022-11-04T05:46:04.063Z,6.95
2022-11-04T05:50:09.751Z,4.53
2022-11-04T05:54:13.113Z,7.82
2022-11-04T05:58:16.416Z,2.60
2022-11-04T06:02:19.869Z,6.38
2022-11-04T06:06:25.935Z,8.60
2022-11-04T06:10:29.370Z,5.18
2022-11-04T06:14:32.790Z,10.18
2022-11-04T06:18:36.259Z,7.60
2022-11-04T06:22:41.253Z,9.68
2022-11-04T06:26:44.635Z,13.00
2022-11-04T06:30:48.233Z,10.10
2022-11-04T06:34:51.583Z,12.70
2022-11-04T06:39:01.409Z,3.47
2022-11-04T06:43:07.988Z,5.40
2022-11-04T06:47:11.637Z,11.05
2022-11-04T06:51:15.021Z,5.68
2022-11-04T06:55:20.291Z,4.32
2022-11-04T06:59:26.449Z,11.77
2022-11-04T07:03:30.243Z,6.18
2022-11-04T07:07:33.621Z,6.78
2022-11-04T07:11:38.571Z,7.88
2022-11-04T07:15:42.184Z,4.43
2022-11-04T07:19:45.492Z,7.03
2022-11-04T07:23:48.858Z,6.53
2022-11-04T07:27:55.500Z,9.88
2022-11-04T07:32:01.526Z,7.28
2022-11-04T07:36:06.536Z,9.50
2022-11-04T07:40:11.201Z,11.38
2022-11-04T07:44:16.074Z,6.45
2022-11-04T07:48:19.516Z,9.32
2022-11-04T07:52:23.213Z,3.78
2022-11-04T07:56:27.321Z,4.72
2022-11-04T08:00:32.046Z,7.90
2022-11-04T08:04:35.372Z,8.15
2022-11-04T08:08:38.917Z,16.77
2022-11-04T08:12:42.309Z,12.25
2022-11-04T08:16:47.339Z,10.95
2022-11-04T08:20:51.764Z,6.40
2022-11-04T08:24:55.201Z,14.35
2022-11-04T08:28:59.382Z,14.57
2022-11-04T08:33:05.446Z,7.65
2022-11-04T08:37:09.130Z,10.85
2022-11-04T08:41:15.213Z,13.65
2022-11-04T08:45:19.043Z,9.20
2022-11-04T08:49:23.864Z,8.10
2022-11-04T08:53:27.830Z,8.55
2022-11-04T08:57:31.803Z,8.40
2022-11-04T09:01:37.440Z,19.33
2022-11-04T09:05:45.163Z,10.13
2022-11-04T09:09:48.705Z,6.57
2022-11-04T09:13:53.276Z,4.78
2022-11-04T09:17:56.689Z,5.80
2022-11-04T09:22:01.551Z,3.42
2022-11-04T09:26:07.224Z,5.88
2022-11-04T09:30:12.430Z,5.55
2022-11-04T09:34:15.958Z,6.65
2022-11-04T09:38:20.813Z,24.70
2022-11-04T09:42:39.327Z,2.58
2022-11-04T09:46:43.750Z,3.47
2022-11-04T09:50:51.767Z,10.77
2022-11-04T09:55:03.393Z,6.82
2022-11-04T09:59:07.699Z,3.08
2022-11-04T10:03:25.244Z,5.78
2022-11-04T10:07:45.757Z,5.50
2022-11-04T14:22:07.999Z,3.72
2022-11-04T14:26:13.960Z,3.95
2022-11-04T14:30:34.538Z,5.70
2022-11-04T14:55:08.367Z,4.88
2022-11-04T14:59:22.957Z,5.85
2022-11-04T15:04:09.089Z,7.93
2022-11-04T15:07:51.746Z,5.82
2022-11-04T15:12:29.669Z,6.03
2022-11-04T15:16:33.083Z,6.05
2022-11-04T15:20:42.198Z,5.78
2022-11-04T15:24:46.061Z,8.35
2022-11-04T15:28:52.395Z,3.78
2022-11-04T15:32:58.187Z,5.82
2022-11-04T15:37:05.522Z,6.78
2022-11-04T15:41:26.746Z,7.32
2022-11-04T15:45:37.177Z,6.15
2022-11-04T15:49:40.713Z,5.97
2022-11-04T15:53:52.889Z,7.95
2022-11-04T15:57:57.010Z,17.35
2022-11-04T16:02:04.439Z,81.00
2022-11-04T16:06:10.391Z,18.88
2022-11-04T16:10:26.349Z,48.03
2022-11-04T16:14:31.372Z,12.65
2022-11-04T16:18:39.267Z,10.57
2022-11-04T16:22:45.993Z,8.77
2022-11-04T16:26:50.167Z,21.92
2022-11-04T16:30:58.631Z,10.32
2022-11-04T16:35:15.338Z,7.30
2022-11-04T16:39:19.358Z,8.52
2022-11-04T16:43:23.096Z,14.90
2022-11-04T16:47:28.554Z,6.57
2022-11-04T16:51:34.728Z,6.90
2022-11-04T16:55:42.149Z,7.28
2022-11-04T16:59:45.515Z,8.73
2022-11-04T17:03:49.932Z,7.45
2022-11-04T17:07:58.846Z,7.28
2022-11-04T17:12:08.323Z,18.08
2022-11-04T17:16:14.284Z,13.25
2022-11-04T17:20:19.776Z,9.93
2022-11-04T17:24:24.567Z,7.85
2022-11-04T17:28:28.041Z,14.93
2022-11-04T17:32:31.683Z,14.15
2022-11-04T17:36:35.583Z,12.15
2022-11-04T17:40:55.265Z,23.17
2022-11-04T17:44:58.845Z,13.82
2022-11-04T17:49:02.919Z,13.55
2022-11-04T17:53:06.813Z,12.75
2022-11-04T17:57:11.812Z,20.98
2022-11-04T18:01:17.430Z,18.33
2022-11-04T18:05:20.969Z,18.55
2022-11-04T18:09:24.588Z,16.85
2022-11-04T18:13:29.916Z,19.08
2022-11-04T18:17:37.319Z,24.55
2022-11-04T18:21:40.988Z,21.42
2022-11-04T18:25:50.467Z,18.50
2022-11-04T18:29:55.664Z,17.20
2022-11-04T18:34:00.895Z,20.13
2022-11-04T18:38:04.469Z,27.77
2022-11-04T18:42:08.093Z,23.13
2022-11-04T18:46:15.865Z,24.42
2022-11-04T18:50:19.567Z,20.13
2022-11-04T18:54:23.414Z,17.85
2022-11-04T18:58:27.025Z,23.23
2022-11-04T19:02:32.620Z,23.27
2022-11-04T19:06:40.980Z,27.33
2022-11-04T19:11:00.098Z,23.42
2022-11-04T19:15:05.499Z,26.13
2022-11-04T19:19:15.229Z,25.00
2022-11-04T19:23:18.823Z,24.23
2022-11-04T19:27:25.005Z,25.38
2022-11-04T19:31:30.793Z,26.08
2022-11-04T19:35:35.709Z,23.30
2022-11-04T19:39:39.816Z,28.60
2022-11-04T19:43:43.360Z,22.15
2022-11-04T19:47:46.941Z,26.17
2022-11-04T19:51:51.794Z,20.35
2022-11-04T19:55:58.690Z,26.20
2022-11-04T20:00:02.138Z,25.45
2022-11-04T20:04:15.084Z,24.20
2022-11-04T20:08:20.018Z,22.52
2022-11-04T20:12:41.417Z,23.65
2022-11-04T20:16:44.906Z,21.27
2022-11-04T20:20:48.637Z,24.02
2022-11-04T20:24:53.458Z,22.05
2022-11-04T20:28:58.415Z,19.23
2022-11-04T20:33:02.681Z,18.27
2022-11-04T20:37:06.058Z,18.35
2022-11-04T20:41:18.676Z,17.00
2022-11-04T20:45:22.075Z,19.55
2022-11-04T20:49:25.676Z,18.88
2022-11-04T20:53:30.949Z,19.63
2022-11-04T20:57:36.683Z,15.77
2022-11-04T21:01:43.032Z,18.85
2022-11-04T21:05:46.938Z,15.32
2022-11-04T21:09:51.351Z,18.35
2022-11-04T21:13:56.434Z,14.95
2022-11-04T21:17:59.791Z,15.63
2022-11-04T21:22:03.377Z,17.30
2022-11-04T21:26:09.502Z,18.13
2022-11-04T21:30:15.161Z,17.33
2022-11-04T21:34:18.616Z,15.10
2022-11-04T21:38:23.464Z,12.75
2022-11-04T21:42:27.064Z,17.00
2022-11-04T21:46:33.716Z,12.23
2022-11-04T21:50:37.416Z,12.65
2022-11-04T21:54:40.903Z,14.15
2022-11-04T21:58:45.051Z,10.80
2022-11-04T22:02:51.921Z,10.02
2022-11-04T22:06:55.768Z,18.23
2022-11-04T22:11:06.198Z,12.13
2022-11-04T22:15:10.475Z,10.75
2022-11-04T22:19:15.137Z,14.40
2022-11-04T22:23:18.488Z,12.43
2022-11-04T22:27:21.790Z,17.10
2022-11-04T22:31:27.231Z,11.32
2022-11-04T22:35:32.379Z,12.30
2022-11-04T22:39:35.732Z,14.07
2022-11-04T22:43:39.461Z,11.98
2022-11-04T22:47:42.942Z,14.23
2022-11-04T22:51:47.644Z,12.02
2022-11-04T22:55:51.195Z,16.58
2022-11-04T22:59:54.551Z,13.75
2022-11-04T23:03:58.154Z,13.80
2022-11-04T23:08:03.131Z,13.68
2022-11-04T23:12:24.454Z,13.45
2022-11-04T23:16:45.860Z,14.48
2022-11-04T23:21:09.950Z,11.32
2022-11-04T23:25:14.695Z,11.43
2022-11-04T23:29:36.773Z,10.90
2022-11-04T23:33:57.715Z,12.77
2022-11-04T23:38:01.441Z,13.55
2022-11-04T23:42:18.336Z,13.55
2022-11-04T23:46:42.973Z,15.90
2022-11-04T23:51:04.179Z,13.55
2022-11-04T23:55:27.551Z,9.20
2022-11-04T23:59:49.944Z,18.52
